createdAt,value
2022-07-27T00:03:17.706Z,3.97
2022-07-27T00:08:20.747Z,4.20
2022-07-27T00:13:23.364Z,4.10
2022-07-27T00:18:25.962Z,3.90
2022-07-27T00:23:28.412Z,3.60
2022-07-27T00:28:30.825Z,3.50
2022-07-27T00:33:33.244Z,3.50
2022-07-27T00:38:35.686Z,3.47
2022-07-27T00:43:52.239Z,3.30
2022-07-27T00:48:54.728Z,3.40
2022-07-27T00:53:57.384Z,3.40
2022-07-27T00:58:59.900Z,3.40
2022-07-27T01:04:02.636Z,3.20
2022-07-27T01:09:25.291Z,3.27
2022-07-27T01:14:30.108Z,3.07
2022-07-27T01:19:33.218Z,3.00
2022-07-27T01:24:36.114Z,2.80
2022-07-27T01:29:38.675Z,2.80
2022-07-27T01:34:41.268Z,2.53
2022-07-27T01:39:43.701Z,2.77
2022-07-27T01:44:46.154Z,1.97
2022-07-27T01:49:48.561Z,2.23
2022-07-27T01:54:51.056Z,2.50
2022-07-27T01:59:54.095Z,3.03
2022-07-27T02:04:56.555Z,2.33
2022-07-27T02:09:59.266Z,2.80
2022-07-27T02:15:15.034Z,2.40
2022-07-27T02:20:22.383Z,2.27
2022-07-27T02:25:24.814Z,2.30
2022-07-27T02:30:27.432Z,2.07
2022-07-27T02:35:30.090Z,1.70
2022-07-27T02:40:32.579Z,1.80
2022-07-27T02:45:34.989Z,2.10
2022-07-27T02:50:37.412Z,1.80
2022-07-27T02:55:40.150Z,2.03
2022-07-27T03:00:42.601Z,1.90
2022-07-27T03:05:45.153Z,1.57
2022-07-27T03:10:48.609Z,2.10
2022-07-27T03:15:51.470Z,2.10
2022-07-27T03:20:54.013Z,2.10
2022-07-27T03:25:56.935Z,1.70
2022-07-27T03:30:59.743Z,1.50
2022-07-27T03:36:02.813Z,1.70
2022-07-27T03:41:06.793Z,1.43
2022-07-27T03:46:09.330Z,1.50
2022-07-27T03:51:11.793Z,1.50
2022-07-27T03:56:14.260Z,1.40
2022-07-27T04:01:16.735Z,1.57
2022-07-27T04:06:19.212Z,1.83
2022-07-27T04:11:21.810Z,1.43
2022-07-27T04:16:26.141Z,1.97
2022-07-27T04:21:28.570Z,1.13
2022-07-27T04:26:36.977Z,1.40
2022-07-27T04:31:39.418Z,1.23
2022-07-27T04:36:41.836Z,1.20
2022-07-27T04:41:44.349Z,1.30
2022-07-27T04:46:47.209Z,1.07
2022-07-27T04:51:49.697Z,1.60
2022-07-27T04:56:52.157Z,1.40
2022-07-27T05:01:54.698Z,2.03
2022-07-27T05:06:57.239Z,1.50
2022-07-27T05:11:59.679Z,1.37
2022-07-27T05:17:02.557Z,1.30
2022-07-27T05:22:08.160Z,1.50
2022-07-27T05:27:10.635Z,1.50
2022-07-27T05:32:15.524Z,1.70
2022-07-27T05:37:18.015Z,1.60
2022-07-27T05:42:20.481Z,1.43
2022-07-27T05:47:22.975Z,1.70
2022-07-27T05:52:25.401Z,1.57
2022-07-27T05:57:27.829Z,1.67
2022-07-27T06:02:31.639Z,1.50
2022-07-27T06:07:52.677Z,1.40
2022-07-27T06:12:55.660Z,2.27
2022-07-27T06:17:58.203Z,1.50
2022-07-27T06:23:03.347Z,1.60
2022-07-27T06:28:10.544Z,1.40
2022-07-27T06:33:14.030Z,1.60
2022-07-27T06:38:19.193Z,1.70
2022-07-27T06:43:27.464Z,1.53
2022-07-27T06:48:30.168Z,1.77
2022-07-27T06:53:36.459Z,1.53
2022-07-27T06:58:39.944Z,1.23
2022-07-27T07:03:42.399Z,1.03
2022-07-27T07:08:44.901Z,1.67
2022-07-27T07:13:47.564Z,1.37
2022-07-27T07:18:52.492Z,1.23
2022-07-27T07:23:55.185Z,1.47
2022-07-27T07:28:57.584Z,1.43
2022-07-27T07:34:00.171Z,1.13
2022-07-27T07:39:02.632Z,1.03
2022-07-27T07:44:06.845Z,1.03
2022-07-27T07:49:11.080Z,0.80
2022-07-27T07:54:13.989Z,1.10
2022-07-27T07:59:16.426Z,0.80
2022-07-27T08:04:19.034Z,1.40
2022-07-27T08:09:21.885Z,1.20
2022-07-27T08:14:26.939Z,1.60
2022-07-27T08:19:29.396Z,1.40
2022-07-27T08:24:31.862Z,1.07
2022-07-27T08:29:36.775Z,1.30
2022-07-27T08:34:39.950Z,1.37
2022-07-27T08:40:37.116Z,1.13
2022-07-27T08:45:05.506Z,1.10
2022-07-27T08:50:24.567Z,1.10
2022-07-27T08:55:30.472Z,1.00
2022-07-27T09:00:34.668Z,0.80
2022-07-27T09:05:46.070Z,0.80
2022-07-27T09:10:49.060Z,0.90
2022-07-27T09:21:22.925Z,0.80
2022-07-27T09:26:33.985Z,1.17
2022-07-27T09:31:55.287Z,0.80
2022-07-27T09:36:59.475Z,1.00
2022-07-27T09:42:03.348Z,0.60
2022-07-27T09:47:27.319Z,0.70
2022-07-27T09:52:31.047Z,0.70
2022-07-27T09:57:55.965Z,0.67
2022-07-27T10:02:59.337Z,0.73
2022-07-27T10:08:01.728Z,0.80
2022-07-27T10:13:05.626Z,0.70
2022-07-27T10:18:16.542Z,0.63
2022-07-27T10:23:30.121Z,1.00
2022-07-27T10:28:32.561Z,0.80
2022-07-27T10:33:46.807Z,0.80
2022-07-27T10:38:58.635Z,0.63
2022-07-27T10:44:18.896Z,0.70
2022-07-27T10:49:23.996Z,0.63
2022-07-27T10:54:29.442Z,0.60
2022-07-27T11:00:06.298Z,0.53
2022-07-27T11:05:05.103Z,0.60
2022-07-27T11:10:07.933Z,0.90
2022-07-27T11:15:10.555Z,0.90
2022-07-27T11:20:13.304Z,1.10
2022-07-27T11:25:16.490Z,0.90
2022-07-27T11:30:27.246Z,0.80
2022-07-27T11:35:29.880Z,0.77
2022-07-27T11:46:24.832Z,0.70
2022-07-27T11:51:28.357Z,0.80
2022-07-27T11:56:32.869Z,0.90
2022-07-27T12:01:39.236Z,0.73
2022-07-27T12:06:46.029Z,0.87
2022-07-27T12:11:57.783Z,0.77
2022-07-27T12:17:17.328Z,0.90
2022-07-27T12:22:30.775Z,1.00
2022-07-27T12:27:34.425Z,0.60
2022-07-27T12:32:46.219Z,0.67
2022-07-27T12:37:55.524Z,0.83
2022-07-27T12:43:02.550Z,0.60
2022-07-27T12:48:21.799Z,0.80
2022-07-27T12:53:24.322Z,0.80
2022-07-27T12:58:27.062Z,0.73
2022-07-27T13:03:29.511Z,0.80
2022-07-27T13:08:31.889Z,0.83
2022-07-27T13:13:34.710Z,0.80
2022-07-27T13:18:37.326Z,0.60
2022-07-27T13:23:40.371Z,1.10
2022-07-27T13:28:42.837Z,0.80
2022-07-27T13:33:45.406Z,0.80
2022-07-27T13:38:48.007Z,0.70
2022-07-27T13:43:50.398Z,0.73
2022-07-27T13:48:52.883Z,0.90
2022-07-27T13:53:55.484Z,0.98
2022-07-27T13:58:58.578Z,0.80
2022-07-27T14:04:05.240Z,0.70
2022-07-27T14:09:07.838Z,1.13
2022-07-27T14:14:14.990Z,0.70
2022-07-27T14:19:19.751Z,0.68
2022-07-27T14:24:23.369Z,0.90
2022-07-27T14:29:25.823Z,0.70
2022-07-27T14:34:28.425Z,0.85
2022-07-27T14:39:30.846Z,0.98
2022-07-27T14:44:35.091Z,0.90
2022-07-27T14:49:37.569Z,0.90
2022-07-27T14:54:41.370Z,1.05
2022-07-27T14:59:44.039Z,1.00
2022-07-27T15:04:46.595Z,1.05
2022-07-27T15:09:48.998Z,0.95
2022-07-27T15:14:52.284Z,0.80
2022-07-27T15:19:54.693Z,1.00
2022-07-27T15:24:57.719Z,0.80
2022-07-27T15:30:00.184Z,0.90
2022-07-27T15:35:03.354Z,1.08
2022-07-27T15:40:24.894Z,1.08
2022-07-27T15:45:27.411Z,1.30
2022-07-27T15:50:29.832Z,1.20
2022-07-27T15:55:34.020Z,1.02
2022-07-27T16:00:41.273Z,0.95
2022-07-27T16:05:47.509Z,1.05
2022-07-27T16:10:50.016Z,0.90
2022-07-27T16:16:11.576Z,1.08
2022-07-27T16:21:14.270Z,0.90
2022-07-27T16:26:17.250Z,1.10
2022-07-27T16:31:20.518Z,1.15
2022-07-27T16:36:23.105Z,1.13
2022-07-27T16:41:25.609Z,1.10
2022-07-27T16:46:28.092Z,1.30
2022-07-27T16:51:30.960Z,1.23
2022-07-27T16:56:33.432Z,1.23
2022-07-27T17:01:35.991Z,1.08
2022-07-27T17:06:38.702Z,1.20
2022-07-27T17:11:41.347Z,1.27
2022-07-27T17:16:50.298Z,1.02
2022-07-27T17:21:54.806Z,1.35
2022-07-27T17:26:57.234Z,0.85
2022-07-27T17:31:59.677Z,1.17
2022-07-27T17:37:02.138Z,1.10
2022-07-27T17:42:04.601Z,1.03
2022-07-27T17:47:07.156Z,1.00
2022-07-27T17:52:09.756Z,0.80
2022-07-27T17:57:12.167Z,1.10
2022-07-27T18:02:16.583Z,1.13
2022-07-27T18:07:19.411Z,0.90
2022-07-27T18:12:21.927Z,0.87
2022-07-27T18:17:24.552Z,1.00
2022-07-27T18:22:27.119Z,0.83
2022-07-27T18:27:32.779Z,0.90
2022-07-27T18:32:35.966Z,0.93
2022-07-27T18:37:38.448Z,0.90
2022-07-27T18:42:41.114Z,0.90
2022-07-27T18:47:49.480Z,0.70
2022-07-27T18:52:52.477Z,0.90
2022-07-27T18:57:58.184Z,0.87
2022-07-27T19:03:00.741Z,0.90
2022-07-27T19:08:03.772Z,0.73
2022-07-27T19:13:06.246Z,0.80
2022-07-27T19:18:08.742Z,1.03
2022-07-27T19:23:12.345Z,0.83
2022-07-27T19:28:16.279Z,1.10
2022-07-27T19:33:20.395Z,0.93
2022-07-27T19:38:22.798Z,1.00
2022-07-27T19:43:25.339Z,1.00
2022-07-27T19:48:28.647Z,1.10
2022-07-27T19:53:31.225Z,1.40
2022-07-27T19:58:34.057Z,1.27
2022-07-27T20:03:52.206Z,1.30
2022-07-27T20:08:59.652Z,1.37
2022-07-27T20:14:03.137Z,2.53
2022-07-27T20:19:05.571Z,3.13
2022-07-27T20:24:08.209Z,3.90
2022-07-27T20:29:12.115Z,2.83
2022-07-27T20:34:14.770Z,3.87
2022-07-27T20:39:17.920Z,3.10
2022-07-27T20:44:21.126Z,2.40
2022-07-27T20:49:24.937Z,3.30
2022-07-27T20:54:29.112Z,3.13
2022-07-27T20:59:33.263Z,2.60
2022-07-27T21:04:35.947Z,2.33
2022-07-27T21:09:38.441Z,2.33
2022-07-27T21:14:43.450Z,2.30
2022-07-27T21:19:45.896Z,1.87
2022-07-27T21:24:49.710Z,1.80
2022-07-27T21:29:52.511Z,2.37
2022-07-27T21:34:54.885Z,2.37
2022-07-27T21:39:57.300Z,1.77
2022-07-27T21:45:00.400Z,1.30
2022-07-27T21:50:03.157Z,1.90
2022-07-27T21:55:06.724Z,1.30
2022-07-27T22:00:10.166Z,1.33
2022-07-27T22:05:12.599Z,1.60
2022-07-27T22:10:15.144Z,1.67
2022-07-27T22:15:17.726Z,1.10
2022-07-27T22:20:21.119Z,1.20
2022-07-27T22:25:23.575Z,1.53
2022-07-27T22:30:26.192Z,1.40
2022-07-27T22:35:28.747Z,1.70
2022-07-27T22:40:31.159Z,1.70
2022-07-27T22:45:33.630Z,1.70
2022-07-27T22:50:36.213Z,1.53
2022-07-27T22:55:38.997Z,1.70
2022-07-27T23:00:41.462Z,1.50
2022-07-27T23:05:43.972Z,1.37
2022-07-27T23:10:46.459Z,1.53
2022-07-27T23:15:50.333Z,1.57
2022-07-27T23:20:53.654Z,1.50
2022-07-27T23:25:56.073Z,1.50
2022-07-27T23:30:59.468Z,1.73
2022-07-27T23:36:06.696Z,1.70
2022-07-27T23:41:09.088Z,1.70
2022-07-27T23:46:11.643Z,1.63
2022-07-27T23:51:18.994Z,1.73
2022-07-27T23:56:21.474Z,1.83
